Decoded Metar for LZSL (SLIAC in SLOVAKIA) (IATA:SLD) | Meteo·Mobile Aviation Weather
aviador You're here:

LZSL Decoded Metar

SLIAC in SLOVAKIA
Report Time2018-10-17 04:30:00
UTC Time2018-10-17 04:52:53
Flight Rules vfr VFR
WindCalm
Visibility9999 m
Phenomena:N/A
Clouds:N/A
Expected CloudBase > 800 ft AGL from Temp-Dew spread
CeilingNone
Temp07°C (ISA -6)
Dew Point05°C (87% RH)
AAT5.9°C
QNH1024 hPa
Density Alt62 ft
Elevation1,027 ft
Report Wrong Elevation
Raw Report
LZSL 170430Z 00000KT CAVOK 07/05 Q1024=

Extra information for LZSL:More info

Metar Taf Metar & Taf Last 4 Metars F.Rules Stats Wind Profile Meteogram Temp Stats Airport Information Weather charts Add Link Nearby VenuesMetar ALERT Operation Metar Decoded Social comments